createdAt,value
2023-01-20T00:00:38.843Z,6.70
2023-01-20T00:03:25.421Z,7.40
2023-01-20T00:06:11.905Z,7.90
2023-01-20T00:08:58.446Z,9.10
2023-01-20T00:11:44.980Z,8.97
2023-01-20T00:14:31.451Z,7.87
2023-01-20T00:17:17.960Z,8.27
2023-01-20T00:20:04.438Z,13.50
2023-01-20T00:22:50.988Z,8.90
2023-01-20T00:25:37.513Z,7.80
2023-01-20T00:28:24.059Z,7.73
2023-01-20T00:31:10.594Z,8.17
2023-01-20T00:33:57.185Z,7.53
2023-01-20T00:36:43.706Z,7.90
2023-01-20T00:39:30.247Z,7.07
2023-01-20T00:42:16.768Z,7.87
2023-01-20T00:45:03.303Z,7.47
2023-01-20T00:47:49.817Z,7.77
2023-01-20T00:50:36.362Z,7.17
2023-01-20T00:53:22.886Z,7.53
2023-01-20T00:56:09.440Z,6.70
2023-01-20T00:58:55.962Z,7.50
2023-01-20T01:01:42.668Z,7.13
2023-01-20T01:04:29.575Z,7.77
2023-01-20T01:07:16.126Z,8.20
2023-01-20T01:10:02.649Z,7.33
2023-01-20T01:12:49.141Z,8.03
2023-01-20T01:15:35.658Z,7.00
2023-01-20T01:18:22.202Z,7.23
2023-01-20T01:21:08.840Z,8.37
2023-01-20T01:23:55.426Z,7.47
2023-01-20T01:26:41.951Z,7.93
2023-01-20T01:29:28.455Z,7.10
2023-01-20T01:32:15.073Z,7.13
2023-01-20T01:35:01.609Z,8.13
2023-01-20T01:37:48.114Z,7.03
2023-01-20T01:40:34.660Z,8.37
2023-01-20T01:43:21.143Z,6.70
2023-01-20T01:46:07.753Z,6.97
2023-01-20T01:48:54.267Z,7.50
2023-01-20T01:51:40.809Z,7.07
2023-01-20T01:54:27.301Z,7.30
2023-01-20T01:57:13.834Z,6.93
2023-01-20T02:00:00.396Z,7.30
2023-01-20T02:02:46.922Z,7.07
2023-01-20T02:05:33.475Z,8.17
2023-01-20T02:08:19.995Z,7.20
2023-01-20T02:11:06.514Z,7.30
2023-01-20T02:13:53.032Z,7.53
2023-01-20T02:16:39.722Z,7.13
2023-01-20T02:19:26.249Z,7.37
2023-01-20T02:22:12.740Z,7.93
2023-01-20T02:24:59.267Z,7.50
2023-01-20T02:27:45.809Z,7.10
2023-01-20T02:30:32.307Z,7.50
2023-01-20T02:33:18.909Z,8.00
2023-01-20T02:36:05.395Z,7.80
2023-01-20T02:38:51.932Z,7.57
2023-01-20T02:41:38.475Z,8.00
2023-01-20T02:44:24.993Z,7.07
2023-01-20T02:47:11.528Z,6.40
2023-01-20T02:49:58.042Z,7.27
2023-01-20T02:52:44.572Z,6.17
2023-01-20T02:55:31.086Z,6.27
2023-01-20T02:58:17.610Z,6.77
2023-01-20T03:01:04.257Z,6.13
2023-01-20T03:03:50.805Z,6.23
2023-01-20T03:06:37.360Z,6.53
2023-01-20T03:09:23.881Z,6.23
2023-01-20T03:12:10.422Z,6.87
2023-01-20T03:14:56.936Z,7.73
2023-01-20T03:17:43.457Z,8.23
2023-01-20T03:20:29.996Z,8.07
2023-01-20T03:23:16.477Z,7.43
2023-01-20T03:26:02.971Z,8.03
2023-01-20T03:28:49.450Z,8.03
2023-01-20T03:31:36.064Z,7.73
2023-01-20T03:34:22.598Z,7.37
2023-01-20T03:37:09.121Z,7.57
2023-01-20T03:39:55.626Z,7.90
2023-01-20T03:42:42.127Z,6.87
2023-01-20T03:45:28.641Z,6.43
2023-01-20T03:48:15.201Z,7.43
2023-01-20T03:51:01.738Z,7.73
2023-01-20T03:53:48.310Z,6.97
2023-01-20T03:56:34.857Z,6.97
2023-01-20T03:59:21.369Z,7.50
2023-01-20T04:02:08.003Z,7.13
2023-01-20T04:04:54.609Z,6.43
2023-01-20T04:07:41.177Z,6.67
2023-01-20T04:10:27.698Z,6.93
2023-01-20T04:13:14.236Z,6.57
2023-01-20T04:16:00.882Z,6.87
2023-01-20T04:18:47.453Z,7.93
2023-01-20T04:21:33.974Z,7.47
2023-01-20T04:24:20.517Z,7.40
2023-01-20T04:27:07.015Z,7.73
2023-01-20T04:29:53.540Z,8.07
2023-01-20T04:32:40.103Z,8.60
2023-01-20T04:35:26.624Z,7.87
2023-01-20T04:38:13.166Z,7.60
2023-01-20T04:40:59.934Z,6.93
2023-01-20T04:43:47.187Z,7.43
2023-01-20T04:46:36.003Z,7.90
2023-01-20T04:49:23.351Z,8.53
2023-01-20T04:52:09.914Z,7.47
2023-01-20T04:54:56.403Z,7.43
2023-01-20T04:57:42.963Z,8.13
2023-01-20T05:00:29.442Z,7.17
2023-01-20T05:03:15.990Z,8.33
2023-01-20T05:06:02.485Z,7.87
2023-01-20T05:08:49.034Z,8.13
2023-01-20T05:11:35.517Z,8.07
2023-01-20T05:14:22.037Z,8.00
2023-01-20T05:17:08.566Z,8.40
2023-01-20T05:19:55.095Z,7.83
2023-01-20T05:22:41.616Z,7.80
2023-01-20T05:25:28.191Z,8.57
2023-01-20T05:28:14.735Z,8.77
2023-01-20T05:31:01.431Z,8.57
2023-01-20T05:33:47.971Z,8.20
2023-01-20T05:36:34.514Z,8.33
2023-01-20T05:39:21.047Z,8.27
2023-01-20T05:42:07.602Z,7.70
2023-01-20T05:44:54.214Z,8.00
2023-01-20T05:47:40.776Z,8.57
2023-01-20T05:50:27.311Z,8.97
2023-01-20T05:53:13.860Z,19.03
2023-01-20T05:56:00.391Z,17.73
2023-01-20T05:58:47.022Z,16.03
2023-01-20T06:01:33.585Z,12.57
2023-01-20T06:04:20.125Z,13.10
2023-01-20T06:07:06.839Z,11.70
2023-01-20T06:09:53.456Z,15.60
2023-01-20T06:12:40.226Z,14.13
2023-01-20T06:15:26.791Z,12.60
2023-01-20T06:18:13.453Z,11.93
2023-01-20T06:20:59.970Z,10.83
2023-01-20T06:23:46.464Z,10.80
2023-01-20T06:26:32.970Z,10.80
2023-01-20T06:29:19.506Z,10.20
2023-01-20T06:32:06.071Z,10.20
2023-01-20T06:34:52.564Z,11.93
2023-01-20T06:37:39.089Z,12.17
2023-01-20T06:40:25.589Z,10.03
2023-01-20T06:43:12.081Z,12.57
2023-01-20T06:45:58.648Z,13.83
2023-01-20T06:48:45.211Z,12.80
2023-01-20T06:51:31.740Z,11.57
2023-01-20T06:54:18.278Z,12.30
2023-01-20T06:57:04.891Z,10.93
2023-01-20T06:59:51.414Z,10.77
2023-01-20T07:02:38.174Z,11.77
2023-01-20T07:05:24.701Z,11.50
2023-01-20T07:08:11.269Z,11.70
2023-01-20T07:10:57.801Z,13.53
2023-01-20T07:13:45.865Z,12.70
2023-01-20T07:16:32.473Z,13.47
2023-01-20T07:19:19.075Z,14.00
2023-01-20T07:22:05.606Z,14.43
2023-01-20T07:24:52.137Z,14.10
2023-01-20T07:27:38.618Z,12.20
2023-01-20T07:30:25.220Z,12.07
2023-01-20T07:33:11.758Z,12.30
2023-01-20T07:35:58.270Z,13.10
2023-01-20T07:38:44.755Z,13.43
2023-01-20T07:41:31.265Z,13.97
2023-01-20T07:44:17.764Z,13.37
2023-01-20T07:47:04.331Z,13.63
2023-01-20T07:49:50.861Z,12.77
2023-01-20T07:52:37.410Z,13.83
2023-01-20T07:55:25.206Z,14.30
2023-01-20T07:58:11.972Z,14.67
2023-01-20T08:00:58.475Z,15.30
2023-01-20T08:03:45.056Z,12.77
2023-01-20T08:06:31.555Z,13.30
2023-01-20T08:09:18.119Z,12.73
2023-01-20T08:12:04.623Z,12.10
2023-01-20T08:14:51.181Z,12.97
2023-01-20T08:17:37.746Z,12.70
2023-01-20T08:20:24.309Z,12.97
2023-01-20T08:23:10.845Z,13.00
2023-01-20T08:25:57.361Z,13.47
2023-01-20T08:28:43.948Z,14.00
2023-01-20T08:31:30.570Z,14.60
2023-01-20T08:34:17.099Z,14.37
2023-01-20T08:37:03.599Z,14.93
2023-01-20T08:39:50.109Z,14.57
2023-01-20T08:42:36.622Z,15.63
2023-01-20T08:45:23.172Z,15.63
2023-01-20T08:48:09.701Z,15.53
2023-01-20T08:50:56.257Z,16.73
2023-01-20T08:53:42.801Z,17.00
2023-01-20T08:56:29.359Z,18.53
2023-01-20T08:59:15.873Z,19.97
2023-01-20T09:02:02.352Z,19.10
2023-01-20T09:04:48.906Z,19.20
2023-01-20T09:07:35.432Z,17.87
2023-01-20T09:10:22.022Z,17.77
2023-01-20T09:13:08.565Z,16.70
2023-01-20T09:15:55.148Z,15.80
2023-01-20T09:18:41.691Z,16.73
2023-01-20T09:21:28.241Z,16.43
2023-01-20T09:24:14.763Z,16.27
2023-01-20T09:27:01.252Z,17.17
2023-01-20T09:29:47.846Z,14.43
2023-01-20T09:32:34.367Z,15.90
2023-01-20T09:35:20.922Z,15.73
2023-01-20T09:38:07.458Z,15.83
2023-01-20T09:40:54.027Z,16.90
2023-01-20T09:43:40.558Z,17.27
2023-01-20T09:46:27.084Z,16.67
2023-01-20T09:49:13.626Z,17.00
2023-01-20T09:52:00.164Z,15.10
2023-01-20T09:54:46.688Z,14.87
2023-01-20T09:57:33.313Z,16.37
2023-01-20T10:00:19.800Z,16.80
2023-01-20T10:03:06.356Z,16.87
2023-01-20T10:05:52.906Z,16.73
2023-01-20T10:08:40.443Z,15.60
2023-01-20T10:11:26.998Z,19.60
2023-01-20T10:14:13.621Z,14.53
2023-01-20T10:17:00.156Z,16.67
2023-01-20T10:19:46.745Z,15.67
2023-01-20T10:22:33.254Z,15.20
2023-01-20T10:25:19.799Z,15.50
2023-01-20T10:28:06.321Z,15.13
2023-01-20T10:30:52.987Z,14.30
2023-01-20T10:33:39.583Z,11.43
2023-01-20T10:36:26.130Z,13.63
2023-01-20T10:39:12.616Z,13.23
2023-01-20T10:41:59.162Z,11.80
2023-01-20T10:44:45.676Z,11.97
2023-01-20T10:47:32.245Z,15.33
2023-01-20T10:50:18.789Z,29.10
2023-01-20T10:53:05.355Z,20.47
2023-01-20T10:55:51.917Z,12.83
2023-01-20T10:58:38.444Z,29.87
2023-01-20T11:01:25.007Z,20.07
2023-01-20T11:04:11.530Z,10.17
2023-01-20T11:06:58.037Z,12.20
2023-01-20T11:09:44.565Z,10.93
2023-01-20T11:12:31.108Z,13.57
2023-01-20T11:15:17.658Z,46.70
2023-01-20T11:18:04.200Z,11.17
2023-01-20T11:20:50.687Z,12.60
2023-01-20T11:23:37.235Z,19.57
2023-01-20T11:26:25.591Z,25.97
2023-01-20T11:29:13.461Z,27.73
2023-01-20T11:31:59.982Z,14.30
2023-01-20T11:34:46.562Z,12.27
2023-01-20T11:37:33.088Z,8.17
2023-01-20T11:40:19.598Z,8.93
2023-01-20T11:43:06.109Z,13.13
2023-01-20T11:45:52.645Z,9.30
2023-01-20T11:48:39.175Z,19.90
2023-01-20T11:51:26.779Z,8.60
2023-01-20T11:54:13.314Z,11.40
2023-01-20T11:56:59.871Z,9.93
2023-01-20T11:59:46.423Z,15.47
2023-01-20T12:02:32.950Z,9.90
2023-01-20T12:05:19.485Z,16.93
2023-01-20T12:08:06.052Z,10.77
2023-01-20T12:10:52.525Z,10.97
2023-01-20T12:13:39.034Z,11.10
2023-01-20T12:16:25.676Z,11.23
2023-01-20T12:19:12.235Z,11.90
2023-01-20T12:21:58.792Z,11.10
2023-01-20T12:24:45.322Z,11.80
2023-01-20T12:27:31.894Z,11.90
2023-01-20T12:30:20.867Z,11.40
2023-01-20T12:33:09.125Z,11.83
2023-01-20T12:35:55.645Z,12.27
2023-01-20T12:38:42.379Z,12.20
2023-01-20T12:41:28.909Z,11.63
2023-01-20T12:44:15.522Z,12.97
2023-01-20T12:47:02.059Z,12.03
2023-01-20T12:49:48.658Z,12.80
2023-01-20T12:52:35.226Z,13.17
2023-01-20T12:55:21.795Z,14.33
2023-01-20T12:58:08.355Z,13.60
2023-01-20T13:00:54.955Z,13.80
2023-01-20T13:03:41.515Z,13.40
2023-01-20T13:06:28.053Z,13.03
2023-01-20T13:09:14.631Z,14.43
2023-01-20T13:12:01.167Z,13.90
2023-01-20T13:14:47.705Z,14.47
2023-01-20T13:17:34.258Z,15.53
2023-01-20T13:20:20.791Z,14.30
2023-01-20T13:23:07.295Z,15.27
2023-01-20T13:25:53.863Z,14.47
2023-01-20T13:28:40.390Z,15.37
2023-01-20T13:31:26.967Z,15.83
2023-01-20T13:34:13.518Z,16.23
2023-01-20T13:37:00.387Z,15.40
2023-01-20T13:39:46.976Z,15.60
2023-01-20T13:42:33.520Z,14.50
2023-01-20T13:45:20.081Z,16.43
2023-01-20T13:48:06.588Z,16.00
2023-01-20T13:50:53.087Z,16.27
2023-01-20T13:53:39.602Z,17.60
2023-01-20T13:56:26.197Z,16.77
2023-01-20T13:59:12.701Z,17.13
2023-01-20T14:01:59.256Z,16.47
2023-01-20T14:04:45.857Z,16.63
2023-01-20T14:07:32.454Z,16.90
2023-01-20T14:10:18.931Z,17.93
2023-01-20T14:13:05.495Z,17.17
2023-01-20T14:15:53.120Z,17.70
2023-01-20T14:18:39.715Z,24.77
2023-01-20T14:21:26.275Z,21.60
2023-01-20T14:24:12.811Z,19.47
2023-01-20T14:26:59.391Z,17.57
2023-01-20T14:29:45.913Z,18.37
2023-01-20T14:32:33.495Z,18.33
2023-01-20T14:35:20.044Z,19.57
2023-01-20T14:38:06.575Z,19.30
2023-01-20T14:40:53.108Z,19.47
2023-01-20T14:43:39.677Z,19.63
2023-01-20T14:46:26.195Z,18.63
2023-01-20T14:49:12.725Z,20.63
2023-01-20T14:51:59.251Z,19.27
2023-01-20T14:54:45.816Z,19.87
2023-01-20T14:57:32.353Z,20.33
2023-01-20T15:00:19.390Z,18.60
2023-01-20T15:03:11.382Z,17.87
2023-01-20T15:05:58.434Z,19.40
2023-01-20T15:08:50.832Z,22.13
2023-01-20T15:11:47.254Z,20.47
2023-01-20T15:14:33.904Z,34.27
2023-01-20T15:17:20.443Z,17.90
2023-01-20T15:20:07.036Z,19.20
2023-01-20T15:22:53.600Z,18.47
2023-01-20T15:25:40.111Z,33.00
2023-01-20T15:28:26.671Z,26.50
2023-01-20T15:31:13.280Z,19.80
2023-01-20T15:33:59.916Z,17.63
2023-01-20T15:36:46.448Z,18.80
2023-01-20T15:39:32.951Z,18.17
2023-01-20T15:42:19.499Z,18.33
2023-01-20T15:45:06.069Z,29.67
2023-01-20T15:47:52.598Z,31.73
2023-01-20T15:50:39.167Z,26.10
2023-01-20T15:53:25.647Z,28.67
2023-01-20T15:56:12.211Z,23.73
2023-01-20T15:58:58.741Z,19.27
2023-01-20T16:01:45.320Z,23.13
2023-01-20T16:04:32.903Z,21.17
2023-01-20T16:07:19.405Z,21.93
2023-01-20T16:10:05.931Z,23.20
2023-01-20T16:12:52.441Z,19.30
2023-01-20T16:15:38.935Z,22.13
2023-01-20T16:18:25.478Z,22.13
2023-01-20T16:21:12.004Z,18.00
2023-01-20T16:23:58.525Z,19.47
2023-01-20T16:26:45.045Z,18.50
2023-01-20T16:29:31.596Z,17.57
2023-01-20T16:32:20.338Z,17.90
2023-01-20T16:35:08.559Z,17.33
2023-01-20T16:37:55.089Z,18.17
2023-01-20T16:40:41.656Z,18.50
2023-01-20T16:43:28.231Z,16.33
2023-01-20T16:46:15.741Z,16.33
2023-01-20T16:49:02.301Z,16.57
2023-01-20T16:51:48.827Z,18.33
2023-01-20T16:54:35.371Z,20.40
2023-01-20T16:57:21.910Z,19.00
2023-01-20T17:00:08.465Z,19.57
2023-01-20T17:02:55.037Z,18.73
2023-01-20T17:05:41.572Z,19.43
2023-01-20T17:08:28.138Z,18.83
2023-01-20T17:11:14.843Z,18.63
2023-01-20T17:14:01.392Z,18.17
2023-01-20T17:16:48.038Z,18.53
2023-01-20T17:19:34.659Z,19.70
2023-01-20T17:22:21.236Z,18.33
2023-01-20T17:25:07.994Z,20.70
2023-01-20T17:27:54.563Z,21.30
2023-01-20T17:30:41.119Z,20.50
2023-01-20T17:33:27.710Z,20.27
2023-01-20T17:36:14.213Z,16.33
2023-01-20T17:39:00.757Z,14.27
2023-01-20T17:41:47.277Z,14.23
2023-01-20T17:44:33.833Z,15.53
2023-01-20T17:47:20.354Z,13.20
2023-01-20T17:50:06.894Z,13.60
2023-01-20T17:52:53.396Z,14.37
2023-01-20T17:55:40.937Z,18.03
2023-01-20T17:58:27.470Z,18.67
2023-01-20T18:01:14.044Z,15.47
2023-01-20T18:04:00.658Z,17.73
2023-01-20T18:06:47.186Z,17.93
2023-01-20T18:09:33.742Z,19.20
2023-01-20T18:12:20.291Z,20.03
2023-01-20T18:15:06.774Z,23.13
2023-01-20T18:17:53.335Z,22.87
2023-01-20T18:20:39.835Z,19.57
2023-01-20T18:23:26.398Z,18.93
2023-01-20T18:26:12.929Z,18.27
2023-01-20T18:28:59.477Z,19.73
2023-01-20T18:31:46.198Z,19.90
2023-01-20T18:34:32.905Z,19.53
2023-01-20T18:37:19.441Z,18.97
2023-01-20T18:40:06.014Z,20.97
2023-01-20T18:42:52.529Z,20.30
2023-01-20T18:45:40.106Z,20.57
2023-01-20T18:48:26.611Z,22.77
2023-01-20T18:51:13.170Z,19.93
2023-01-20T18:53:59.664Z,21.03
2023-01-20T18:56:46.209Z,22.43
2023-01-20T18:59:32.734Z,20.73
2023-01-20T19:02:19.259Z,21.43
2023-01-20T19:05:05.789Z,21.60
2023-01-20T19:07:52.348Z,21.67
2023-01-20T19:10:38.880Z,22.73
2023-01-20T19:13:25.430Z,23.60
2023-01-20T19:16:12.133Z,23.10
2023-01-20T19:18:58.708Z,23.63
2023-01-20T19:21:45.292Z,21.60
2023-01-20T19:24:31.811Z,22.93
2023-01-20T19:27:18.296Z,22.40
2023-01-20T19:30:04.831Z,19.47
2023-01-20T19:32:51.413Z,18.90
2023-01-20T19:35:37.894Z,14.70
2023-01-20T19:38:25.491Z,12.87
2023-01-20T19:41:12.000Z,14.40
2023-01-20T19:43:58.582Z,10.63
2023-01-20T19:46:45.073Z,13.17
2023-01-20T19:49:31.622Z,12.33
2023-01-20T19:52:18.243Z,10.77
2023-01-20T19:55:04.802Z,12.33
2023-01-20T19:57:51.340Z,11.80
2023-01-20T20:00:37.947Z,10.07
2023-01-20T20:03:24.468Z,9.53
2023-01-20T20:06:11.174Z,11.23
2023-01-20T20:08:57.660Z,9.87
2023-01-20T20:11:44.217Z,10.40
2023-01-20T20:14:30.737Z,10.50
2023-01-20T20:17:17.237Z,10.00
2023-01-20T20:20:03.723Z,9.50
2023-01-20T20:22:50.288Z,9.40
2023-01-20T20:25:36.809Z,9.27
2023-01-20T20:28:23.329Z,9.30
2023-01-20T20:31:09.955Z,9.50
2023-01-20T20:33:56.479Z,11.13
2023-01-20T20:36:43.002Z,14.67
2023-01-20T20:39:29.553Z,16.27
2023-01-20T20:42:16.094Z,17.27
2023-01-20T20:45:02.628Z,15.43
2023-01-20T20:47:49.176Z,15.60
2023-01-20T20:50:35.696Z,20.83
2023-01-20T20:53:23.567Z,17.07
2023-01-20T20:56:10.119Z,15.47
2023-01-20T20:59:01.976Z,15.70
2023-01-20T21:01:49.427Z,15.43
2023-01-20T21:04:35.939Z,15.33
2023-01-20T21:07:22.604Z,14.77
2023-01-20T21:10:09.081Z,16.03
2023-01-20T21:12:55.639Z,15.57
2023-01-20T21:15:42.161Z,15.07
2023-01-20T21:18:28.657Z,15.47
2023-01-20T21:21:15.178Z,15.87
2023-01-20T21:24:01.693Z,15.33
2023-01-20T21:26:48.219Z,16.53
2023-01-20T21:29:34.772Z,14.97
2023-01-20T21:32:21.287Z,13.50
2023-01-20T21:35:07.839Z,6.87
2023-01-20T21:37:54.387Z,8.10
2023-01-20T21:40:40.937Z,7.10
2023-01-20T21:43:27.447Z,8.80
2023-01-20T21:46:14.012Z,8.90
2023-01-20T21:49:00.571Z,7.60
2023-01-20T21:51:48.139Z,7.67
2023-01-20T21:54:34.717Z,8.20
2023-01-20T21:57:21.281Z,7.03
2023-01-20T22:00:07.848Z,7.13
2023-01-20T22:02:54.379Z,7.03
2023-01-20T22:05:40.912Z,6.73
2023-01-20T22:08:27.577Z,6.70
2023-01-20T22:11:14.076Z,7.77
2023-01-20T22:14:00.953Z,9.43
2023-01-20T22:16:47.498Z,7.33
2023-01-20T22:19:34.038Z,5.73
2023-01-20T22:22:20.576Z,5.43
2023-01-20T22:25:07.120Z,5.73
2023-01-20T22:27:53.652Z,4.77
2023-01-20T22:30:40.179Z,4.47
2023-01-20T22:33:26.669Z,4.53
2023-01-20T22:36:13.239Z,5.03
2023-01-20T22:38:59.764Z,5.03
2023-01-20T22:41:46.317Z,5.20
2023-01-20T22:44:32.841Z,4.23
2023-01-20T22:47:19.391Z,4.87
2023-01-20T22:50:05.923Z,4.90
2023-01-20T22:52:52.441Z,4.80
2023-01-20T22:55:48.877Z,4.60
2023-01-20T22:58:42.518Z,5.17
2023-01-20T23:01:29.141Z,5.30
2023-01-20T23:04:15.749Z,4.47
2023-01-20T23:07:02.290Z,5.20
2023-01-20T23:09:48.814Z,5.30
2023-01-20T23:12:35.339Z,4.97
2023-01-20T23:15:22.184Z,5.10
2023-01-20T23:18:08.736Z,5.37
2023-01-20T23:20:55.320Z,5.23
2023-01-20T23:23:41.882Z,4.87
2023-01-20T23:26:28.435Z,4.90
2023-01-20T23:29:14.965Z,4.60
2023-01-20T23:32:01.538Z,5.17
2023-01-20T23:34:48.185Z,4.70
2023-01-20T23:37:34.726Z,5.43
2023-01-20T23:40:21.265Z,4.87
2023-01-20T23:43:07.799Z,5.10
2023-01-20T23:45:54.356Z,5.23
2023-01-20T23:48:40.926Z,5.23
2023-01-20T23:51:27.428Z,5.37
2023-01-20T23:54:13.942Z,6.23
2023-01-20T23:57:00.490Z,4.73
2023-01-20T23:59:47.036Z,4.97
